createdAt,value
2019-02-14T00:02:06.928Z,5.20
2019-02-14T00:04:37.281Z,5.10
2019-02-14T00:07:07.555Z,5.10
2019-02-14T00:09:40.757Z,5.00
2019-02-14T00:12:13.807Z,5.00
2019-02-14T00:14:43.840Z,4.90
2019-02-14T00:17:13.893Z,4.80
2019-02-14T00:19:43.976Z,4.60
2019-02-14T00:22:17.628Z,4.70
2019-02-14T00:24:47.790Z,4.70
2019-02-14T00:27:18.041Z,4.60
2019-02-14T00:29:48.048Z,4.70
2019-02-14T00:32:20.921Z,4.60
2019-02-14T00:34:50.964Z,4.60
2019-02-14T00:37:20.972Z,4.60
2019-02-14T00:39:51.052Z,4.60
2019-02-14T00:42:21.416Z,4.70
2019-02-14T00:44:55.638Z,4.70
2019-02-14T00:47:25.981Z,4.70
2019-02-14T00:49:56.091Z,4.60
2019-02-14T00:52:31.854Z,4.60
2019-02-14T00:55:01.868Z,4.50
2019-02-14T00:57:31.885Z,4.50
2019-02-14T01:00:02.349Z,4.40
2019-02-14T01:02:34.704Z,4.40
2019-02-14T01:05:05.168Z,4.40
2019-02-14T01:07:35.384Z,4.30
2019-02-14T01:10:05.767Z,4.20
2019-02-14T01:12:41.756Z,4.20
2019-02-14T01:15:11.999Z,4.20
2019-02-14T01:17:44.851Z,4.20
2019-02-14T01:20:17.731Z,3.80
2019-02-14T01:22:47.736Z,3.50
2019-02-14T01:25:17.941Z,3.60
2019-02-14T01:27:48.307Z,3.80
2019-02-14T01:30:20.491Z,3.90
2019-02-14T01:32:50.983Z,3.90
2019-02-14T01:35:21.036Z,3.80
2019-02-14T01:37:51.417Z,3.80
2019-02-14T01:40:21.523Z,3.80
2019-02-14T01:42:51.503Z,3.90
2019-02-14T01:45:22.309Z,3.90
2019-02-14T01:47:52.405Z,3.90
2019-02-14T01:50:22.417Z,3.80
2019-02-14T01:52:52.469Z,3.70
2019-02-14T01:55:22.627Z,3.80
2019-02-14T01:57:52.628Z,3.80
2019-02-14T02:00:22.861Z,3.80
2019-02-14T02:02:55.830Z,3.70
2019-02-14T02:05:25.855Z,3.70
2019-02-14T02:07:55.825Z,3.60
2019-02-14T02:10:26.599Z,3.60
2019-02-14T02:12:56.573Z,3.60
2019-02-14T02:15:26.505Z,3.70
2019-02-14T02:17:57.029Z,3.60
2019-02-14T02:20:33.197Z,3.60
2019-02-14T02:22:58.671Z,3.60
2019-02-14T02:25:28.700Z,3.50
2019-02-14T02:27:58.639Z,3.50
2019-02-14T02:30:28.581Z,3.40
2019-02-14T02:32:59.893Z,3.50
2019-02-14T02:35:29.869Z,3.60
2019-02-14T02:37:59.817Z,3.50
2019-02-14T02:40:30.048Z,3.40
2019-02-14T02:43:00.275Z,3.40
2019-02-14T02:45:30.275Z,3.30
2019-02-14T02:48:00.336Z,3.30
2019-02-14T02:50:30.397Z,3.30
2019-02-14T02:53:00.380Z,3.20
2019-02-14T02:55:30.490Z,3.30
2019-02-14T02:58:22.592Z,3.20
2019-02-14T03:00:55.578Z,3.20
2019-02-14T03:03:25.704Z,3.00
2019-02-14T03:05:55.933Z,3.00
2019-02-14T03:08:25.942Z,3.00
2019-02-14T03:10:55.936Z,3.00
2019-02-14T03:13:47.373Z,2.90
2019-02-14T03:16:17.448Z,2.90
2019-02-14T03:18:47.563Z,2.80
2019-02-14T03:21:17.666Z,2.80
2019-02-14T03:23:47.968Z,2.80
2019-02-14T03:26:18.593Z,2.80
2019-02-14T03:28:50.223Z,2.80
2019-02-14T03:31:20.482Z,2.80
2019-02-14T03:33:50.616Z,2.80
2019-02-14T03:36:20.805Z,2.90
2019-02-14T03:38:58.614Z,2.80
2019-02-14T03:41:28.862Z,2.80
2019-02-14T03:43:58.924Z,2.70
2019-02-14T03:46:28.938Z,2.80
2019-02-14T03:48:59.648Z,2.70
2019-02-14T03:51:29.669Z,2.70
2019-02-14T03:54:05.036Z,2.70
2019-02-14T03:56:35.061Z,2.70
2019-02-14T03:59:05.227Z,2.60
2019-02-14T04:01:36.058Z,2.50
2019-02-14T04:04:10.070Z,2.50
2019-02-14T04:06:41.453Z,2.50
2019-02-14T04:09:11.483Z,2.40
2019-02-14T04:11:41.540Z,2.40
2019-02-14T04:14:14.076Z,2.30
2019-02-14T04:16:44.117Z,2.40
2019-02-14T04:19:14.139Z,2.40
2019-02-14T04:21:44.487Z,2.40
2019-02-14T04:24:15.029Z,2.30
2019-02-14T04:26:45.024Z,2.30
2019-02-14T04:29:15.266Z,2.30
2019-02-14T04:31:45.347Z,2.40
2019-02-14T04:34:21.551Z,2.30
2019-02-14T04:36:51.669Z,2.30
2019-02-14T04:39:21.680Z,2.30
2019-02-14T04:41:51.893Z,2.20
2019-02-14T04:44:30.707Z,2.30
2019-02-14T04:47:01.172Z,2.30
2019-02-14T04:49:31.217Z,2.30
2019-02-14T04:52:01.304Z,2.20
2019-02-14T04:54:32.809Z,2.20
2019-02-14T04:57:03.341Z,2.20
2019-02-14T04:59:33.439Z,2.10
2019-02-14T05:02:03.685Z,2.30
2019-02-14T05:04:39.680Z,2.20
2019-02-14T05:07:09.881Z,2.20
2019-02-14T05:09:45.913Z,2.20
2019-02-14T05:12:16.162Z,2.10
2019-02-14T05:14:46.281Z,2.20
2019-02-14T05:17:16.296Z,2.30
2019-02-14T05:19:46.471Z,2.30
2019-02-14T05:22:16.500Z,2.20
2019-02-14T05:24:53.372Z,2.30
2019-02-14T05:27:23.556Z,2.20
2019-02-14T05:29:53.654Z,2.10
2019-02-14T05:32:23.918Z,2.10
2019-02-14T05:34:57.798Z,2.10
2019-02-14T05:37:29.186Z,2.00
2019-02-14T05:39:59.234Z,2.10
2019-02-14T05:42:29.292Z,2.00
2019-02-14T05:45:12.991Z,2.00
2019-02-14T05:47:43.125Z,2.10
2019-02-14T05:50:13.416Z,2.10
2019-02-14T05:52:43.598Z,2.00
2019-02-14T05:55:13.845Z,1.90
2019-02-14T05:57:43.977Z,1.90
2019-02-14T06:00:15.272Z,1.90
2019-02-14T06:02:45.303Z,1.90
2019-02-14T06:05:15.429Z,1.90
2019-02-14T06:07:50.245Z,1.90
2019-02-14T06:10:20.260Z,1.90
2019-02-14T06:12:50.315Z,1.90
2019-02-14T06:15:21.416Z,2.00
2019-02-14T06:17:51.429Z,2.10
2019-02-14T06:20:21.469Z,2.00
2019-02-14T06:22:55.504Z,2.00
2019-02-14T06:25:25.561Z,1.90
2019-02-14T06:27:55.590Z,2.00
2019-02-14T06:30:26.108Z,1.90
2019-02-14T06:33:03.120Z,1.90
2019-02-14T06:35:33.912Z,2.00
2019-02-14T06:38:04.078Z,2.00
2019-02-14T06:40:35.630Z,2.00
2019-02-14T06:43:08.947Z,2.00
2019-02-14T06:45:39.045Z,2.10
2019-02-14T06:48:09.113Z,2.20
2019-02-14T06:50:40.541Z,2.20
2019-02-14T06:53:10.628Z,2.20
2019-02-14T06:55:41.068Z,2.30
2019-02-14T06:58:12.883Z,2.40
2019-02-14T07:00:43.073Z,2.40
2019-02-14T07:03:13.143Z,2.40
2019-02-14T07:05:44.817Z,2.50
2019-02-14T07:08:18.073Z,2.50
2019-02-14T07:10:48.163Z,2.60
2019-02-14T07:13:18.480Z,2.60
2019-02-14T07:15:52.188Z,2.60
2019-02-14T07:18:24.605Z,2.70
2019-02-14T07:20:57.032Z,2.80
2019-02-14T07:23:27.076Z,2.90
2019-02-14T07:25:57.089Z,3.00
2019-02-14T07:28:27.310Z,3.10
2019-02-14T07:30:57.661Z,3.30
2019-02-14T07:33:30.366Z,3.20
2019-02-14T07:36:00.923Z,3.30
2019-02-14T07:38:33.949Z,3.30
2019-02-14T07:41:17.795Z,3.30
2019-02-14T07:43:48.232Z,3.10
2019-02-14T07:46:22.795Z,3.10
2019-02-14T07:48:50.159Z,3.10
2019-02-14T07:51:20.186Z,3.10
2019-02-14T07:53:53.221Z,3.20
2019-02-14T07:56:26.176Z,3.30
2019-02-14T07:58:59.896Z,3.30
2019-02-14T08:01:29.945Z,3.80
2019-02-14T08:04:00.065Z,4.40
2019-02-14T08:06:33.289Z,5.40
2019-02-14T08:09:08.098Z,6.50
2019-02-14T08:11:38.381Z,6.80
2019-02-14T08:14:08.396Z,7.60
2019-02-14T08:16:38.651Z,8.00
2019-02-14T08:19:11.934Z,7.80
2019-02-14T08:21:43.247Z,7.60
2019-02-14T08:24:13.386Z,7.00
2019-02-14T08:26:43.665Z,7.10
2019-02-14T08:29:13.789Z,7.20
2019-02-14T08:31:43.870Z,7.20
2019-02-14T08:34:13.971Z,6.80
2019-02-14T08:36:44.154Z,6.30
2019-02-14T08:39:18.531Z,6.20
2019-02-14T08:41:48.563Z,6.30
2019-02-14T08:44:20.280Z,6.30
2019-02-14T08:46:50.964Z,6.40
2019-02-14T08:49:21.069Z,6.30
2019-02-14T08:51:54.479Z,5.70
2019-02-14T08:54:27.273Z,5.50
2019-02-14T08:57:03.316Z,5.60
2019-02-14T08:59:34.815Z,5.50
2019-02-14T09:02:04.998Z,5.70
2019-02-14T09:04:35.555Z,5.70
2019-02-14T09:07:05.584Z,5.50
2019-02-14T09:09:36.841Z,5.50
2019-02-14T09:12:08.687Z,5.60
2019-02-14T09:14:41.810Z,5.60
2019-02-14T09:17:14.624Z,5.50
2019-02-14T09:19:44.922Z,5.60
2019-02-14T09:22:15.711Z,5.70
2019-02-14T09:24:46.107Z,5.80
2019-02-14T09:27:17.981Z,6.10
2019-02-14T09:29:48.417Z,6.50
2019-02-14T09:32:25.759Z,7.40
2019-02-14T09:34:56.177Z,7.90
2019-02-14T09:37:26.693Z,8.40
2019-02-14T09:39:57.589Z,8.00
2019-02-14T09:42:29.166Z,9.10
2019-02-14T09:44:59.587Z,10.00
2019-02-14T09:47:29.990Z,10.10
2019-02-14T09:50:00.481Z,9.60
2019-02-14T09:52:34.327Z,9.10
2019-02-14T09:55:04.718Z,9.90
2019-02-14T09:57:35.268Z,10.90
2019-02-14T10:00:07.442Z,10.30
2019-02-14T10:02:37.737Z,9.70
2019-02-14T10:05:10.379Z,9.60
2019-02-14T10:07:40.952Z,9.20
2019-02-14T10:10:13.728Z,9.50
2019-02-14T10:12:44.499Z,10.30
2019-02-14T10:15:15.598Z,11.20
2019-02-14T10:17:46.450Z,11.20
2019-02-14T10:20:17.382Z,11.40
2019-02-14T10:22:49.726Z,12.00
2019-02-14T10:25:23.159Z,12.20
2019-02-14T10:27:54.046Z,12.00
2019-02-14T10:30:24.392Z,11.10
2019-02-14T10:32:56.165Z,10.80
2019-02-14T10:35:27.047Z,11.30
2019-02-14T10:37:57.807Z,11.20
2019-02-14T10:40:28.800Z,12.00
2019-02-14T10:43:00.995Z,12.00
2019-02-14T10:45:31.755Z,11.60
2019-02-14T10:48:02.357Z,11.30
2019-02-14T10:50:32.796Z,11.60
2019-02-14T10:53:05.425Z,11.70
2019-02-14T10:55:36.950Z,10.70
2019-02-14T10:58:07.467Z,10.90
2019-02-14T11:00:39.792Z,10.80
2019-02-14T11:03:13.152Z,10.60
2019-02-14T11:05:47.787Z,11.90
2019-02-14T11:08:31.071Z,13.00
2019-02-14T11:11:02.400Z,12.60
2019-02-14T11:13:32.960Z,13.30
2019-02-14T11:16:04.033Z,13.40
2019-02-14T11:18:43.719Z,14.20
2019-02-14T11:21:07.340Z,13.90
2019-02-14T11:23:41.590Z,12.80
2019-02-14T11:26:14.786Z,12.60
2019-02-14T11:28:45.243Z,12.40
2019-02-14T11:31:15.361Z,13.70
2019-02-14T11:33:45.861Z,13.60
2019-02-14T11:36:18.697Z,13.70
2019-02-14T11:38:49.217Z,13.90
2019-02-14T11:41:20.613Z,15.30
2019-02-14T11:43:51.025Z,15.50
2019-02-14T11:46:21.366Z,16.50
2019-02-14T11:48:56.384Z,15.60
2019-02-14T11:51:26.837Z,14.80
2019-02-14T11:53:57.846Z,13.40
2019-02-14T11:56:28.686Z,14.40
2019-02-14T11:58:59.223Z,14.50
2019-02-14T12:01:29.761Z,15.90
2019-02-14T12:04:03.469Z,16.10
2019-02-14T12:06:34.153Z,15.70
2019-02-14T12:09:05.951Z,16.60
2019-02-14T12:11:36.162Z,16.60
2019-02-14T12:14:06.495Z,16.10
2019-02-14T12:16:39.163Z,16.30
2019-02-14T12:19:11.549Z,16.90
2019-02-14T12:21:41.757Z,16.80
2019-02-14T12:24:14.898Z,16.20
2019-02-14T12:26:45.282Z,16.50
2019-02-14T12:29:15.301Z,16.70
2019-02-14T12:31:47.360Z,17.10
2019-02-14T12:34:18.087Z,16.80
2019-02-14T12:36:48.623Z,17.00
2019-02-14T12:39:18.932Z,16.00
2019-02-14T12:41:49.297Z,15.40
2019-02-14T12:44:19.939Z,15.40
2019-02-14T12:46:51.828Z,15.20
2019-02-14T12:49:22.107Z,15.80
2019-02-14T12:51:52.619Z,16.40
2019-02-14T12:54:26.510Z,16.30
2019-02-14T12:57:01.701Z,16.10
2019-02-14T12:59:32.246Z,15.80
2019-02-14T13:02:06.454Z,15.80
2019-02-14T13:04:37.177Z,15.20
2019-02-14T13:07:09.089Z,15.00
2019-02-14T13:09:39.727Z,15.20
2019-02-14T13:12:10.735Z,15.80
2019-02-14T13:14:41.358Z,14.70
2019-02-14T13:17:11.844Z,15.00
2019-02-14T13:19:43.352Z,13.80
2019-02-14T13:24:49.426Z,13.70
2019-02-14T13:27:21.804Z,15.30
2019-02-14T13:29:52.422Z,15.10
2019-02-14T13:32:28.205Z,15.80
2019-02-14T13:35:00.753Z,15.20
2019-02-14T13:37:33.782Z,15.10
2019-02-14T13:40:07.565Z,14.70
2019-02-14T13:42:38.669Z,14.70
2019-02-14T13:45:13.522Z,14.30
2019-02-14T13:47:44.302Z,14.50
2019-02-14T13:50:16.050Z,15.10
2019-02-14T13:52:51.412Z,14.90
2019-02-14T13:55:25.023Z,14.70
2019-02-14T13:58:02.078Z,15.30
2019-02-14T14:00:35.230Z,14.70
2019-02-14T14:03:05.706Z,14.70
2019-02-14T14:05:36.538Z,15.50
2019-02-14T14:08:10.032Z,15.70
2019-02-14T14:10:40.627Z,16.10
2019-02-14T14:13:12.833Z,15.20
2019-02-14T14:15:43.651Z,15.00
2019-02-14T14:18:15.030Z,14.90
2019-02-14T14:20:45.691Z,15.70
2019-02-14T14:23:16.525Z,15.90
2019-02-14T14:25:49.287Z,15.00
2019-02-14T14:28:19.727Z,14.40
2019-02-14T14:30:49.970Z,14.20
2019-02-14T14:33:20.933Z,14.40
2019-02-14T14:35:51.774Z,14.10
2019-02-14T14:38:30.735Z,13.80
2019-02-14T14:41:02.099Z,13.60
2019-02-14T14:44:02.846Z,13.60
2019-02-14T14:46:48.090Z,13.90
2019-02-14T14:49:19.535Z,14.70
2019-02-14T14:51:51.502Z,14.10
2019-02-14T14:54:23.874Z,13.60
2019-02-14T14:57:01.126Z,13.50
2019-02-14T14:59:32.891Z,13.50
2019-02-14T15:02:03.714Z,13.60
2019-02-14T15:04:34.339Z,13.60
2019-02-14T15:07:07.549Z,13.50
2019-02-14T15:09:37.845Z,13.80
2019-02-14T15:12:08.433Z,13.60
2019-02-14T15:14:38.653Z,13.20
2019-02-14T15:17:09.362Z,13.10
2019-02-14T15:19:39.577Z,12.80
2019-02-14T15:22:12.379Z,12.70
2019-02-14T15:24:42.858Z,12.90
2019-02-14T15:27:13.937Z,12.90
2019-02-14T15:29:46.878Z,12.90
2019-02-14T15:32:17.312Z,12.80
2019-02-14T15:34:47.455Z,12.80
2019-02-14T15:37:18.205Z,12.80
2019-02-14T15:39:51.390Z,13.10
2019-02-14T15:42:28.373Z,12.80
2019-02-14T15:44:59.848Z,12.50
2019-02-14T15:47:30.868Z,12.30
2019-02-14T15:50:03.867Z,12.20
2019-02-14T15:52:33.742Z,12.20
2019-02-14T15:55:10.013Z,12.10
2019-02-14T15:57:44.718Z,12.10
2019-02-14T16:00:17.111Z,12.10
2019-02-14T16:02:50.369Z,12.10
2019-02-14T16:05:25.985Z,12.30
2019-02-14T16:08:00.954Z,12.30
2019-02-14T16:10:33.310Z,12.10
2019-02-14T16:13:18.107Z,12.00
2019-02-14T16:15:58.688Z,11.90
2019-02-14T16:18:38.071Z,11.90
2019-02-14T16:21:16.109Z,11.80
2019-02-14T16:23:50.955Z,11.80
2019-02-14T16:26:21.074Z,11.50
2019-02-14T16:28:53.477Z,11.60
2019-02-14T16:31:24.439Z,11.50
2019-02-14T16:33:54.660Z,11.50
2019-02-14T16:36:24.956Z,11.50
2019-02-14T16:38:56.433Z,11.30
2019-02-14T16:41:28.250Z,11.30
2019-02-14T16:44:02.203Z,11.20
2019-02-14T16:46:33.151Z,11.10
2019-02-14T16:49:07.367Z,11.00
2019-02-14T16:51:38.003Z,10.90
2019-02-14T16:54:11.863Z,10.80
2019-02-14T16:56:42.307Z,10.70
2019-02-14T16:59:12.765Z,10.60
2019-02-14T17:01:43.520Z,10.50
2019-02-14T17:04:13.977Z,10.30
2019-02-14T17:06:44.596Z,10.20
2019-02-14T17:09:18.972Z,10.10
2019-02-14T17:11:51.343Z,10.00
2019-02-14T17:14:23.206Z,9.90
2019-02-14T17:16:53.510Z,9.80
2019-02-14T17:19:23.996Z,9.70
2019-02-14T17:21:55.627Z,9.60
2019-02-14T17:24:32.867Z,9.60
2019-02-14T17:27:03.361Z,9.50
2019-02-14T17:29:34.445Z,9.40
2019-02-14T17:32:04.934Z,9.30
2019-02-14T17:34:35.848Z,9.20
2019-02-14T17:37:16.257Z,9.10
2019-02-14T17:39:51.116Z,9.00
2019-02-14T17:42:24.435Z,8.90
2019-02-14T17:45:00.663Z,8.80
2019-02-14T17:47:31.103Z,8.70
2019-02-14T17:50:01.430Z,8.60
2019-02-14T17:52:35.988Z,8.50
2019-02-14T17:55:09.778Z,8.40
2019-02-14T17:57:40.435Z,8.30
2019-02-14T18:00:11.824Z,8.30
2019-02-14T18:02:42.489Z,8.20
2019-02-14T18:05:18.481Z,8.10
2019-02-14T18:07:46.796Z,8.00
2019-02-14T18:10:17.846Z,8.00
2019-02-14T18:12:50.269Z,7.90
2019-02-14T18:15:21.845Z,7.90
2019-02-14T18:17:55.224Z,7.80
2019-02-14T18:20:26.739Z,7.70
2019-02-14T18:23:00.177Z,7.60
2019-02-14T18:25:32.795Z,7.50
2019-02-14T18:28:03.382Z,7.40
2019-02-14T18:30:36.136Z,7.40
2019-02-14T18:33:08.018Z,7.30
2019-02-14T18:35:41.375Z,7.20
2019-02-14T18:38:14.756Z,7.10
2019-02-14T18:40:45.722Z,7.00
2019-02-14T18:43:20.641Z,7.00
2019-02-14T18:45:54.186Z,6.90
2019-02-14T18:48:25.668Z,6.90
2019-02-14T18:50:57.838Z,6.80
2019-02-14T18:53:31.537Z,6.70
2019-02-14T18:56:02.393Z,6.70
2019-02-14T18:58:34.815Z,6.60
2019-02-14T19:01:08.536Z,6.60
2019-02-14T19:03:39.475Z,6.50
2019-02-14T19:06:12.864Z,6.40
2019-02-14T19:08:43.586Z,6.40
2019-02-14T19:11:15.443Z,6.40
2019-02-14T19:13:47.866Z,6.30
2019-02-14T19:16:21.546Z,6.30
2019-02-14T19:19:01.954Z,6.20
2019-02-14T19:21:36.056Z,6.10
2019-02-14T19:24:06.650Z,6.00
2019-02-14T19:26:37.619Z,5.90
2019-02-14T19:29:08.056Z,5.90
2019-02-14T19:31:38.902Z,5.90
2019-02-14T19:34:10.923Z,5.80
2019-02-14T19:36:41.961Z,5.80
2019-02-14T19:39:13.132Z,5.80
2019-02-14T19:41:47.801Z,5.70
2019-02-14T19:44:19.195Z,5.60
2019-02-14T19:46:51.064Z,5.60
2019-02-14T19:49:21.560Z,5.50
2019-02-14T19:51:52.201Z,5.50
2019-02-14T19:54:22.766Z,5.40
2019-02-14T19:57:01.464Z,5.30
2019-02-14T19:59:35.784Z,5.30
2019-02-14T20:02:06.463Z,5.30
2019-02-14T20:04:38.859Z,5.20
2019-02-14T20:07:09.715Z,5.20
2019-02-14T20:09:43.391Z,5.10
2019-02-14T20:12:17.724Z,5.00
2019-02-14T20:14:48.190Z,5.00
2019-02-14T20:17:18.573Z,4.90
2019-02-14T20:19:55.836Z,4.90
2019-02-14T20:22:26.274Z,4.90
2019-02-14T20:24:56.687Z,4.80
2019-02-14T20:27:27.828Z,4.80
2019-02-14T20:30:01.385Z,4.70
2019-02-14T20:32:32.386Z,4.80
2019-02-14T20:35:02.945Z,4.80
2019-02-14T20:37:35.891Z,4.70
2019-02-14T20:40:07.512Z,4.60
2019-02-14T20:42:38.260Z,4.50
2019-02-14T20:45:10.774Z,4.50
2019-02-14T20:47:41.279Z,4.40
2019-02-14T20:50:15.547Z,4.40
2019-02-14T20:52:47.397Z,4.30
2019-02-14T20:55:18.101Z,4.20
2019-02-14T20:57:51.979Z,4.30
2019-02-14T21:00:28.417Z,4.30
2019-02-14T21:02:59.562Z,4.20
2019-02-14T21:05:30.087Z,4.20
2019-02-14T21:08:00.670Z,4.20
2019-02-14T21:10:32.054Z,4.20
2019-02-14T21:13:11.071Z,4.10
2019-02-14T21:15:41.637Z,4.30
2019-02-14T21:18:12.257Z,4.20
2019-02-14T21:20:42.620Z,4.10
2019-02-14T21:23:13.269Z,4.10
2019-02-14T21:25:43.573Z,4.10
2019-02-14T21:28:14.055Z,4.10
2019-02-14T21:30:44.746Z,4.10
2019-02-14T21:33:15.253Z,4.00
2019-02-14T21:35:45.466Z,3.90
2019-02-14T21:38:15.898Z,3.80
2019-02-14T21:40:46.245Z,3.80
2019-02-14T21:43:18.158Z,3.80
2019-02-14T21:45:48.787Z,3.80
2019-02-14T21:48:19.327Z,3.90
2019-02-14T21:50:50.188Z,3.80
2019-02-14T21:53:20.850Z,3.70
2019-02-14T21:55:52.491Z,3.70
2019-02-14T21:58:23.633Z,3.60
2019-02-14T22:00:54.617Z,3.60
2019-02-14T22:03:28.149Z,3.50
2019-02-14T22:05:58.973Z,3.50
2019-02-14T22:08:31.967Z,3.40
2019-02-14T22:11:05.448Z,3.40
2019-02-14T22:13:35.952Z,3.40
2019-02-14T22:16:09.527Z,3.30
2019-02-14T22:18:40.157Z,3.30
2019-02-14T22:21:10.466Z,3.30
2019-02-14T22:23:44.032Z,3.30
2019-02-14T22:26:14.338Z,3.40
2019-02-14T22:28:47.106Z,3.30
2019-02-14T22:31:19.379Z,3.20
2019-02-14T22:33:51.293Z,3.20
2019-02-14T22:36:25.111Z,3.20
2019-02-14T22:38:55.382Z,3.20
2019-02-14T22:41:25.905Z,3.10
2019-02-14T22:43:59.471Z,3.10
2019-02-14T22:46:32.190Z,3.00
2019-02-14T22:49:05.568Z,3.10
2019-02-14T22:51:36.185Z,3.00
2019-02-14T22:54:06.610Z,3.00
2019-02-14T22:56:37.200Z,2.90
2019-02-14T22:59:13.618Z,2.90
2019-02-14T23:01:45.146Z,2.80
2019-02-14T23:04:18.362Z,2.80
2019-02-14T23:06:50.768Z,2.90
2019-02-14T23:09:21.086Z,2.80
2019-02-14T23:11:51.292Z,2.80
2019-02-14T23:14:24.718Z,2.80
2019-02-14T23:16:55.439Z,2.80
2019-02-14T23:19:25.887Z,2.80
2019-02-14T23:21:56.362Z,2.70
2019-02-14T23:24:26.813Z,2.60
2019-02-14T23:26:57.018Z,2.60
2019-02-14T23:29:27.910Z,2.60
2019-02-14T23:31:59.583Z,2.50
2019-02-14T23:34:29.866Z,2.50
2019-02-14T23:37:01.069Z,2.50
2019-02-14T23:39:31.661Z,2.40
2019-02-14T23:42:01.994Z,2.50
2019-02-14T23:44:33.025Z,2.40
2019-02-14T23:47:03.430Z,2.40
2019-02-14T23:49:33.890Z,2.30
2019-02-14T23:52:04.365Z,2.30
2019-02-14T23:54:34.763Z,2.20
2019-02-14T23:57:20.881Z,2.20
2019-02-14T23:59:51.154Z,2.30
